Time;durP1;ratioP1;P1;durP2;ratioP2;P2;SDS_P1;SDS_P2;PMS_P1;PMS_P2;Temp;Humidity;BMP_temperature;BMP_pressure;BME280_temperature;BME280_humidity;BME280_pressure;Samples;Min_cycle;Max_cycle;Signal;HPM_P1;HPM_P2
2021/06/23 00:01:22;;;;;;;37.20;25.33;;;13.80;99.70;;;;;;5075475;28;20031;-77
2021/06/23 00:03:48;;;;;;;33.70;24.75;;;13.70;99.90;;;;;;5092936;28;20038;-77
2021/06/23 00:06:14;;;;;;;30.30;23.20;;;13.70;99.90;;;;;;5092494;28;20099;-77
2021/06/23 00:08:39;;;;;;;33.05;22.83;;;13.70;99.90;;;;;;5092429;28;20016;-77
2021/06/23 00:11:05;;;;;;;38.13;22.90;;;13.70;99.90;;;;;;5075481;28;20436;-77
2021/06/23 00:13:35;;;;;;;39.78;27.23;;;13.70;99.90;;;;;;5092404;28;20024;-77
2021/06/23 00:16:01;;;;;;;36.78;24.95;;;13.70;99.90;;;;;;5075756;28;20031;-77
2021/06/23 00:18:27;;;;;;;33.03;22.88;;;13.70;99.90;;;;;;5092670;28;20047;-77
2021/06/23 00:20:52;;;;;;;37.65;24.83;;;13.70;99.70;;;;;;5092453;28;20028;-77
2021/06/23 00:23:18;;;;;;;40.17;24.60;;;13.70;99.90;;;;;;5075637;28;20036;-77
2021/06/23 00:25:44;;;;;;;42.95;27.00;;;13.70;99.90;;;;;;5075388;28;20028;-77
2021/06/23 00:28:09;;;;;;;34.50;22.92;;;13.70;99.90;;;;;;5076197;28;20024;-77
2021/06/23 00:30:35;;;;;;;33.97;22.27;;;13.70;99.90;;;;;;5092346;28;20066;-77
2021/06/23 00:36:23;;;;;;;29.60;21.50;;;13.70;99.80;;;;;;5093728;28;20023;-77
2021/06/23 00:38:48;;;;;;;32.40;25.63;;;13.60;99.70;;;;;;5092444;28;20020;-77
2021/06/23 00:41:17;;;;;;;29.45;21.42;;;13.70;99.90;;;;;;5074941;28;20561;-77
2021/06/23 00:43:44;;;;;;;38.05;25.70;;;13.70;99.90;;;;;;5075861;28;20352;-77
2021/06/23 00:46:11;;;;;;;32.40;24.67;;;13.70;99.90;;;;;;5059127;28;20024;-77
2021/06/23 00:48:36;;;;;;;31.33;23.52;;;13.70;99.90;;;;;;5075404;28;20507;-77
2021/06/23 00:51:02;;;;;;;35.60;22.10;;;13.60;99.90;;;;;;5075322;28;20104;-77
2021/06/23 00:53:28;;;;;;;39.92;24.02;;;13.60;99.90;;;;;;5075565;28;20024;-77
2021/06/23 00:55:54;;;;;;;33.28;23.73;;;13.70;99.90;;;;;;5074408;28;20107;-77
2021/06/23 00:58:20;;;;;;;34.97;25.85;;;13.70;99.90;;;;;;5071920;28;20028;-77
2021/06/23 01:00:45;;;;;;;36.60;24.02;;;13.70;99.90;;;;;;5055433;28;20352;-77
2021/06/23 01:03:11;;;;;;;31.85;22.65;;;13.60;99.90;;;;;;5054746;28;20119;-78
2021/06/23 01:05:37;;;;;;;34.70;24.35;;;13.60;99.90;;;;;;5055068;28;20077;-78
2021/06/23 01:08:04;;;;;;;36.80;23.13;;;13.70;99.90;;;;;;5054973;28;20433;-77
2021/06/23 01:10:31;;;;;;;34.90;23.35;;;13.60;99.50;;;;;;5055562;28;20025;-77
2021/06/23 01:13:27;;;;;;;35.03;22.60;;;13.60;99.80;;;;;;5072206;28;20035;-77
2021/06/23 01:15:54;;;;;;;31.98;21.30;;;13.60;99.60;;;;;;5072830;28;20025;-78
2021/06/23 01:18:20;;;;;;;32.85;23.33;;;13.60;99.40;;;;;;5071965;28;20463;-78
2021/06/23 01:20:47;;;;;;;37.65;24.10;;;13.60;99.90;;;;;;5054651;28;20020;-78
2021/06/23 01:23:13;;;;;;;35.90;24.75;;;13.60;99.60;;;;;;5054915;28;20028;-78
2021/06/23 01:25:39;;;;;;;34.80;22.75;;;13.60;99.90;;;;;;5038375;28;20023;-78
2021/06/23 01:28:05;;;;;;;32.33;23.73;;;13.60;99.50;;;;;;5056611;28;20052;-78
2021/06/23 01:30:30;;;;;;;33.88;22.15;;;13.60;99.60;;;;;;5075228;28;20032;-78
2021/06/23 01:36:18;;;;;;;31.00;21.00;;;13.60;99.80;;;;;;5088745;28;20050;-78
2021/06/23 01:42:07;;;;;;;31.60;23.15;;;13.50;99.90;;;;;;5098559;28;20027;-78
2021/06/23 01:44:32;;;;;;;36.10;23.10;;;13.50;99.80;;;;;;5098630;28;20082;-77
2021/06/23 01:46:58;;;;;;;38.03;22.48;;;13.50;99.50;;;;;;5099500;28;20017;-78
2021/06/23 01:52:46;;;;;;;38.67;24.95;;;13.50;99.50;;;;;;5096424;28;20046;-78
2021/06/23 01:55:27;;;;;;;37.78;24.85;;;13.50;99.90;;;;;;5047964;28;20028;-79
2021/06/23 01:57:57;;;;;;;36.22;25.17;;;13.50;99.90;;;;;;5060154;28;20021;-78
2021/06/23 02:00:22;;;;;;;32.78;23.38;;;13.50;99.90;;;;;;5074444;28;20020;-78
2021/06/23 02:06:17;;;;;;;32.95;22.23;;;13.50;99.30;;;;;;5095593;28;20411;-77
2021/06/23 02:08:45;;;;;;;41.70;23.90;;;13.50;99.70;;;;;;5077633;28;20035;-77
2021/06/23 02:11:34;;;;;;;32.38;21.80;;;13.50;99.90;;;;;;5094671;28;20024;-77
2021/06/23 02:17:27;;;;;;;31.67;22.50;;;13.60;99.90;;;;;;5095909;28;20069;-77
2021/06/23 02:23:14;;;;;;;33.75;21.25;;;13.50;99.10;;;;;;5095387;28;20051;-77
2021/06/23 02:25:40;;;;;;;31.65;22.92;;;13.50;99.60;;;;;;5095383;28;20453;-77
2021/06/23 02:28:06;;;;;;;33.28;21.67;;;13.50;99.50;;;;;;5094073;28;20016;-77
2021/06/23 02:30:31;;;;;;;30.08;21.98;;;13.50;99.40;;;;;;5077314;28;20028;-77
2021/06/23 02:36:19;;;;;;;36.05;22.13;;;13.40;99.90;;;;;;5095767;28;20050;-78
2021/06/23 02:42:07;;;;;;;34.17;21.85;;;13.50;99.30;;;;;;5095328;28;20090;-78
2021/06/23 02:44:32;;;;;;;30.33;21.23;;;13.50;99.40;;;;;;5094015;28;20109;-78
2021/06/23 02:47:01;;;;;;;31.60;22.17;;;13.50;99.30;;;;;;5094269;28;20444;-78
2021/06/23 02:49:26;;;;;;;38.17;24.77;;;13.40;99.50;;;;;;5077017;28;20060;-78
2021/06/23 02:51:52;;;;;;;37.13;22.98;;;13.50;99.90;;;;;;5076522;28;20047;-78
2021/06/23 02:57:40;;;;;;;32.80;20.80;;;13.40;99.50;;;;;;5095116;28;20089;-78
2021/06/23 03:00:07;;;;;;;34.63;21.48;;;13.40;99.20;;;;;;5077293;28;20024;-78
2021/06/23 03:02:32;;;;;;;33.72;21.50;;;13.40;99.50;;;;;;5076090;28;20024;-78
2021/06/23 03:08:20;;;;;;;26.50;21.05;;;13.40;99.50;;;;;;5094603;28;20085;-78
2021/06/23 03:10:46;;;;;;;35.58;22.60;;;13.40;99.50;;;;;;5093293;28;20444;-78
2021/06/23 03:13:11;;;;;;;36.95;22.33;;;13.40;99.60;;;;;;5076614;28;20024;-78
2021/06/23 03:18:59;;;;;;;44.58;23.88;;;13.50;99.80;;;;;;5094420;28;20463;-79
2021/06/23 03:24:47;;;;;;;33.22;22.08;;;13.50;99.40;;;;;;5094144;28;20051;-79
2021/06/23 03:27:12;;;;;;;31.70;21.73;;;13.40;99.30;;;;;;5077071;28;20020;-79
2021/06/23 03:29:38;;;;;;;37.90;24.30;;;13.50;99.20;;;;;;5075943;28;20027;-79
2021/06/23 03:32:06;;;;;;;40.78;21.75;;;13.50;99.80;;;;;;5076032;28;20110;-79
2021/06/23 03:34:50;;;;;;;43.80;21.52;;;13.50;99.40;;;;;;5076412;28;20032;-79
2021/06/23 03:40:38;;;;;;;34.92;21.70;;;13.50;99.10;;;;;;5093937;28;20544;-79
2021/06/23 03:43:03;;;;;;;41.30;22.05;;;13.50;99.60;;;;;;5092518;28;20103;-80
2021/06/23 03:45:29;;;;;;;35.40;22.08;;;13.50;99.40;;;;;;5075990;28;20031;-79
2021/06/23 03:51:17;;;;;;;37.78;22.85;;;13.50;99.40;;;;;;5093409;28;20035;-79
2021/06/23 03:57:05;;;;;;;37.63;22.88;;;13.50;99.20;;;;;;5094157;28;20145;-79
2021/06/23 03:59:30;;;;;;;31.17;21.15;;;13.50;99.10;;;;;;5060807;28;20085;-79
2021/06/23 04:08:40;;;;;;;34.03;22.33;;;13.60;99.10;;;;;;5094616;28;20030;-80
2021/06/23 04:11:05;;;;;;;35.53;22.40;;;13.60;99.30;;;;;;5092923;28;20421;-80
2021/06/23 04:13:31;;;;;;;29.73;22.33;;;13.60;99.20;;;;;;5077801;28;20046;-80
2021/06/23 04:19:19;;;;;;;33.50;21.58;;;13.70;98.90;;;;;;5093684;28;20506;-80
2021/06/23 04:21:44;;;;;;;34.35;23.42;;;13.60;98.90;;;;;;5092539;28;20032;-80
2021/06/23 04:24:10;;;;;;;31.73;20.88;;;13.70;99.70;;;;;;5074908;28;20138;-79
2021/06/23 04:26:36;;;;;;;31.13;22.23;;;13.70;99.30;;;;;;5092441;28;20538;-80
2021/06/23 04:29:01;;;;;;;32.67;22.13;;;13.70;99.00;;;;;;5075293;28;20038;-80
2021/06/23 04:34:49;;;;;;;33.22;21.00;;;13.70;98.70;;;;;;5093666;28;20047;-80
2021/06/23 04:37:15;;;;;;;36.78;21.00;;;13.70;98.70;;;;;;5092481;28;20447;-80
2021/06/23 04:43:03;;;;;;;32.20;21.30;;;13.70;98.30;;;;;;5093292;28;20031;-81
2021/06/23 04:45:29;;;;;;;29.50;20.45;;;13.80;98.80;;;;;;5091182;28;20020;-80
2021/06/23 04:47:54;;;;;;;32.00;21.45;;;13.90;98.90;;;;;;5074255;28;20111;-78
2021/06/23 04:50:32;;;;;;;35.60;22.85;;;13.90;98.70;;;;;;5091706;28;20024;-78
2021/06/23 04:52:57;;;;;;;32.28;21.05;;;14.00;98.80;;;;;;5092210;28;20461;-78
2021/06/23 04:55:23;;;;;;;32.63;20.65;;;14.00;99.10;;;;;;5074053;28;20027;-78
2021/06/23 04:57:49;;;;;;;36.05;20.30;;;14.00;97.70;;;;;;5073861;28;20430;-78
2021/06/23 05:00:16;;;;;;;34.42;20.67;;;14.00;97.90;;;;;;5090969;28;20024;-78
2021/06/23 05:02:41;;;;;;;36.78;22.10;;;14.00;98.40;;;;;;5076981;28;20064;-78
2021/06/23 05:05:08;;;;;;;29.65;20.25;;;14.00;98.50;;;;;;5076171;28;20048;-77
2021/06/23 05:07:33;;;;;;;36.33;20.40;;;14.10;97.60;;;;;;5071428;28;20024;-78
2021/06/23 05:09:59;;;;;;;29.40;20.02;;;14.10;97.30;;;;;;5095422;28;20043;-78
2021/06/23 05:12:30;;;;;;;25.30;18.85;;;14.10;97.30;;;;;;5058497;28;20077;-78
2021/06/23 05:14:56;;;;;;;32.35;20.40;;;14.20;97.40;;;;;;5077672;28;20027;-78
2021/06/23 05:17:21;;;;;;;27.00;18.83;;;14.20;97.70;;;;;;5095716;28;20016;-78
2021/06/23 05:19:47;;;;;;;29.10;17.92;;;14.20;97.30;;;;;;5062297;28;20444;-78
2021/06/23 05:22:13;;;;;;;28.60;19.55;;;14.20;97.10;;;;;;5095543;28;20012;-78
2021/06/23 05:24:39;;;;;;;31.33;18.98;;;14.20;97.70;;;;;;5077672;28;20031;-78
2021/06/23 05:27:06;;;;;;;27.00;17.08;;;14.30;97.20;;;;;;5089931;28;20503;-78
2021/06/23 05:29:31;;;;;;;31.83;18.77;;;14.20;97.10;;;;;;5075369;28;20074;-79
2021/06/23 05:31:57;;;;;;;36.40;18.35;;;14.30;97.70;;;;;;5059154;28;20055;-79
2021/06/23 05:34:22;;;;;;;29.45;18.08;;;14.30;97.40;;;;;;5076973;28;20487;-79
2021/06/23 05:36:48;;;;;;;32.67;17.10;;;14.30;96.80;;;;;;5060727;28;20016;-78
2021/06/23 05:42:36;;;;;;;25.20;16.25;;;14.20;96.50;;;;;;5096286;28;20038;-77
2021/06/23 05:45:01;;;;;;;25.30;18.60;;;14.30;96.50;;;;;;5094699;28;20035;-79
2021/06/23 05:47:27;;;;;;;29.27;17.70;;;14.50;96.90;;;;;;5078129;28;20356;-80
2021/06/23 05:49:53;;;;;;;29.70;16.88;;;14.50;96.10;;;;;;5076992;28;20031;-80
2021/06/23 05:52:18;;;;;;;24.88;16.77;;;14.70;96.10;;;;;;5083268;28;20029;-81
2021/06/23 05:54:44;;;;;;;23.60;15.43;;;14.80;95.20;;;;;;5094424;28;20026;-81
2021/06/23 05:57:09;;;;;;;34.95;16.92;;;14.80;95.40;;;;;;5095347;28;20356;-81
2021/06/23 06:00:25;;;;;;;28.90;16.20;;;14.80;95.80;;;;;;5077717;28;20024;-81
2021/06/23 06:02:51;;;;;;;27.42;16.50;;;14.80;95.40;;;;;;5076252;28;20024;-82
2021/06/23 06:05:37;;;;;;;27.17;16.52;;;14.80;95.40;;;;;;5061471;28;20069;-79
2021/06/23 06:08:03;;;;;;;27.27;15.50;;;14.80;95.60;;;;;;5095283;28;20035;-80
2021/06/23 06:10:29;;;;;;;29.98;15.18;;;14.90;94.80;;;;;;5059700;28;20368;-81
2021/06/23 06:20:01;;;;;;;27.48;15.55;;;15.00;94.80;;;;;;5094637;28;20478;-81
2021/06/23 06:22:27;;;;;;;25.30;13.98;;;15.20;95.00;;;;;;5083787;28;20453;-81
2021/06/23 06:28:33;;;;;;;21.95;14.85;;;15.20;93.70;;;;;;5094438;28;20035;-81
2021/06/23 06:30:59;;;;;;;23.33;14.63;;;15.30;94.50;;;;;;5075803;28;20042;-80
2021/06/23 06:33:24;;;;;;;27.33;14.07;;;15.40;94.20;;;;;;5071342;28;20086;-81
2021/06/23 06:35:50;;;;;;;24.20;14.10;;;15.30;93.40;;;;;;5059762;28;20012;-81
2021/06/23 06:38:15;;;;;;;23.35;14.65;;;15.10;93.30;;;;;;5095175;28;20024;-81
2021/06/23 06:44:03;;;;;;;28.02;15.52;;;14.90;94.70;;;;;;5074558;28;20447;-82
2021/06/23 06:46:29;;;;;;;25.98;14.60;;;14.90;94.40;;;;;;5057272;28;20024;-82
2021/06/23 06:52:17;;;;;;;33.28;16.05;;;15.00;94.40;;;;;;5094975;28;20054;-82
2021/06/23 06:58:04;;;;;;;23.75;15.15;;;14.80;94.50;;;;;;5091473;28;20360;-82
2021/06/23 07:03:52;;;;;;;27.50;15.57;;;14.80;95.10;;;;;;5074549;28;20035;-82
2021/06/23 07:13:01;;;;;;;29.33;15.20;;;15.00;94.50;;;;;;5094986;28;20101;-81
2021/06/23 07:18:49;;;;;;;23.55;14.68;;;15.00;94.40;;;;;;5095048;28;20030;-82
2021/06/23 07:21:18;;;;;;;22.85;14.38;;;15.00;95.40;;;;;;5059832;28;20082;-82
2021/06/23 07:23:48;;;;;;;30.13;15.40;;;15.10;94.20;;;;;;5060624;28;20114;-82
2021/06/23 07:29:36;;;;;;;33.75;15.98;;;15.30;94.10;;;;;;5093499;28;20031;-84
2021/06/23 07:43:24;;;;;;;13.63;7.30;;;18.30;93.10;;;;;;5030134;28;20492;-73
2021/06/23 07:45:55;;;;;;;12.35;7.18;;;20.10;83.00;;;;;;5046724;28;20143;-74
2021/06/23 07:48:22;;;;;;;11.10;6.40;;;21.20;77.10;;;;;;5019407;28;20037;-74
2021/06/23 07:50:52;;;;;;;12.07;6.15;;;21.90;74.40;;;;;;5014992;28;20421;-74
2021/06/23 07:55:50;;;;;;;14.77;5.55;;;22.50;72.10;;;;;;5015157;28;20075;-74
2021/06/23 08:11:41;;;;;;;9.93;5.60;;;23.10;69.20;;;;;;5033609;28;20155;-74
2021/06/23 08:14:06;;;;;;;12.57;6.45;;;23.20;68.50;;;;;;5029160;28;20029;-73
2021/06/23 08:16:32;;;;;;;11.98;5.80;;;23.20;66.50;;;;;;5034187;28;20459;-73
2021/06/23 08:18:58;;;;;;;11.98;6.28;;;23.30;67.00;;;;;;5035163;28;20034;-72
2021/06/23 08:21:24;;;;;;;12.25;6.80;;;23.30;66.90;;;;;;5031322;28;20554;-74
2021/06/23 08:23:49;;;;;;;12.15;5.78;;;23.40;66.10;;;;;;5030510;28;20033;-74
2021/06/23 08:26:15;;;;;;;15.40;6.22;;;23.40;65.60;;;;;;5022239;28;20531;-74
2021/06/23 08:28:41;;;;;;;11.48;6.35;;;23.40;65.70;;;;;;5033147;28;20025;-74
2021/06/23 08:31:06;;;;;;;13.27;6.53;;;23.50;64.90;;;;;;5022723;28;20033;-72
2021/06/23 08:33:32;;;;;;;10.18;6.30;;;23.50;64.90;;;;;;5038475;28;20040;-74
2021/06/23 08:35:58;;;;;;;14.05;6.35;;;23.50;64.30;;;;;;5021741;28;20219;-74
2021/06/23 08:38:23;;;;;;;12.27;6.25;;;23.50;64.00;;;;;;5023326;28;20381;-74
2021/06/23 08:40:50;;;;;;;9.20;6.35;;;23.40;64.10;;;;;;5023085;28;20033;-73
2021/06/23 08:43:16;;;;;;;9.10;6.15;;;23.30;64.00;;;;;;5020486;28;20142;-73
2021/06/23 08:45:42;;;;;;;10.55;6.40;;;23.30;64.00;;;;;;5052129;28;20033;-73
2021/06/23 08:48:08;;;;;;;12.85;6.50;;;23.40;64.30;;;;;;5001886;28;20419;-74
2021/06/23 08:50:34;;;;;;;11.30;6.32;;;23.30;64.30;;;;;;5021065;28;20494;-74
2021/06/23 08:52:59;;;;;;;11.05;6.15;;;23.30;64.10;;;;;;5011451;28;20030;-73
2021/06/23 08:55:25;;;;;;;14.02;7.03;;;23.30;64.20;;;;;;5015967;28;20649;-74
2021/06/23 08:57:51;;;;;;;14.85;6.80;;;23.30;64.10;;;;;;5022271;28;20022;-73
2021/06/23 09:00:18;;;;;;;12.88;6.85;;;23.30;65.40;;;;;;4987433;28;20040;-74
2021/06/23 09:02:44;;;;;;;13.10;6.45;;;23.20;65.00;;;;;;5019233;28;20037;-74
2021/06/23 09:05:11;;;;;;;11.13;6.18;;;23.20;65.70;;;;;;5017322;28;20652;-74
2021/06/23 09:07:40;;;;;;;10.88;5.45;;;23.30;65.50;;;;;;5015944;28;20072;-73
2021/06/23 09:10:08;;;;;;;9.43;5.00;;;23.40;65.50;;;;;;5019704;28;20052;-74
2021/06/23 09:12:34;;;;;;;10.70;5.40;;;23.50;65.00;;;;;;5020988;28;20029;-74
2021/06/23 09:15:01;;;;;;;8.50;4.97;;;23.50;65.00;;;;;;5019084;28;20123;-74
2021/06/23 09:17:26;;;;;;;11.90;5.88;;;23.60;64.60;;;;;;5016129;28;20116;-73
2021/06/23 09:19:57;;;;;;;10.00;4.88;;;23.60;64.70;;;;;;5016200;28;20112;-73
2021/06/23 09:22:45;;;;;;;9.63;5.20;;;23.70;64.60;;;;;;4988999;28;20044;-74
2021/06/23 09:25:11;;;;;;;9.50;5.20;;;23.70;64.50;;;;;;5000799;28;20526;-74
2021/06/23 09:27:44;;;;;;;8.63;5.32;;;23.70;64.60;;;;;;5015783;28;20029;-74
2021/06/23 09:30:27;;;;;;;12.23;5.40;;;23.70;64.40;;;;;;5010232;28;20025;-74
2021/06/23 09:33:22;;;;;;;9.10;5.10;;;23.70;64.20;;;;;;4984611;28;20037;-73
2021/06/23 09:36:00;;;;;;;13.98;6.50;;;23.80;64.10;;;;;;5018230;28;20033;-75
2021/06/23 09:38:31;;;;;;;10.73;6.72;;;23.70;63.60;;;;;;5016401;28;20421;-73
2021/06/23 09:40:57;;;;;;;18.48;7.43;;;23.60;63.70;;;;;;5016789;28;20032;-74
2021/06/23 09:43:22;;;;;;;17.10;6.55;;;23.50;64.20;;;;;;5002803;28;20045;-75
2021/06/23 09:45:52;;;;;;;12.50;6.25;;;23.40;65.00;;;;;;4984388;28;20134;-75
2021/06/23 09:48:18;;;;;;;17.70;6.45;;;23.40;64.80;;;;;;4998840;28;20059;-76
2021/06/23 09:50:44;;;;;;;13.68;5.80;;;23.40;65.60;;;;;;5018912;28;20412;-74
2021/06/23 09:53:13;;;;;;;10.32;5.97;;;23.40;65.60;;;;;;5006642;28;20037;-75
2021/06/23 09:55:40;;;;;;;8.43;5.10;;;23.40;65.40;;;;;;5035316;28;20421;-74
2021/06/23 09:58:10;;;;;;;8.65;5.35;;;23.50;65.00;;;;;;5003871;28;20029;-75
2021/06/23 10:01:09;;;;;;;13.30;5.32;;;23.50;64.60;;;;;;5017504;28;20099;-74
2021/06/23 10:03:57;;;;;;;10.57;4.60;;;23.60;64.40;;;;;;5000522;28;20041;-74
2021/06/23 10:06:24;;;;;;;10.90;4.43;;;23.70;64.20;;;;;;5014406;28;20480;-75
2021/06/23 10:08:50;;;;;;;10.02;4.70;;;23.70;63.90;;;;;;5017050;28;20539;-74
2021/06/23 10:11:31;;;;;;;9.35;4.80;;;23.80;63.50;;;;;;5005282;28;20085;-75
2021/06/23 10:13:56;;;;;;;10.60;5.10;;;23.80;63.20;;;;;;5005107;28;20044;-76
2021/06/23 10:16:24;;;;;;;8.20;4.72;;;23.80;63.10;;;;;;5005064;28;20740;-75
2021/06/23 10:18:51;;;;;;;10.90;5.38;;;23.70;62.60;;;;;;5003647;28;20080;-75
2021/06/23 10:21:16;;;;;;;7.88;5.20;;;23.40;62.40;;;;;;5007700;28;20048;-75
2021/06/23 10:23:42;;;;;;;18.17;5.55;;;23.70;62.50;;;;;;4996282;28;20647;-75
2021/06/23 10:26:07;;;;;;;12.18;5.70;;;23.60;62.30;;;;;;4987688;28;20026;-75
2021/06/23 10:28:33;;;;;;;9.90;5.25;;;23.60;62.30;;;;;;5014829;28;20033;-75
2021/06/23 10:30:59;;;;;;;13.43;5.65;;;23.60;62.30;;;;;;5003141;28;20037;-75
2021/06/23 10:33:24;;;;;;;9.82;5.50;;;23.60;62.30;;;;;;5020131;28;20115;-75
2021/06/23 10:35:50;;;;;;;13.15;5.30;;;23.50;62.40;;;;;;5020224;28;20049;-75
2021/06/23 10:38:18;;;;;;;10.85;5.50;;;23.50;62.40;;;;;;5020251;28;20065;-74
2021/06/23 10:40:43;;;;;;;9.38;5.63;;;23.50;62.50;;;;;;5016796;28;20071;-75
2021/06/23 10:43:13;;;;;;;11.00;5.15;;;23.60;62.80;;;;;;5005651;28;20426;-75
2021/06/23 10:45:41;;;;;;;12.02;4.70;;;23.60;63.00;;;;;;4999191;28;20041;-75
2021/06/23 10:48:07;;;;;;;8.43;4.70;;;23.70;62.80;;;;;;5003011;28;20033;-75
2021/06/23 10:50:33;;;;;;;9.93;4.82;;;23.80;62.70;;;;;;5021786;28;20028;-75
2021/06/23 10:52:59;;;;;;;9.85;5.15;;;23.80;62.50;;;;;;5004866;28;20074;-75
2021/06/23 10:55:25;;;;;;;11.68;5.57;;;23.90;62.30;;;;;;5014763;28;20048;-75
2021/06/23 10:58:03;;;;;;;12.68;6.40;;;23.80;62.00;;;;;;5019700;28;20049;-74
2021/06/23 11:00:31;;;;;;;11.18;6.97;;;23.70;61.90;;;;;;5016898;28;20060;-74
2021/06/23 11:03:13;;;;;;;102.80;34.75;;;23.60;62.90;;;;;;5020010;28;20419;-74
2021/06/23 11:05:49;;;;;;;210.30;52.25;;;23.50;65.90;;;;;;5015234;28;20025;-75
2021/06/23 11:08:20;;;;;;;210.85;51.53;;;23.50;68.90;;;;;;5022673;28;20738;-75
2021/06/23 11:10:47;;;;;;;232.70;60.53;;;23.60;75.30;;;;;;5014714;28;20034;-75
2021/06/23 11:13:19;;;;;;;118.38;40.80;;;23.60;92.50;;;;;;4988868;28;20044;-74
2021/06/23 11:15:49;;;;;;;438.92;148.38;;;23.60;89.60;;;;;;5025747;28;20022;-73
2021/06/23 11:18:22;;;;;;;1999.90;999.90;;;23.60;94.40;;;;;;5016331;28;20104;-76
2021/06/23 11:21:00;;;;;;;1999.90;954.88;;;23.80;99.00;;;;;;4997519;28;20044;-75
2021/06/23 11:23:48;;;;;;;808.47;290.30;;;23.80;93.60;;;;;;5016300;28;20026;-75
2021/06/23 11:26:21;;;;;;;502.80;151.48;;;23.80;80.20;;;;;;5016740;28;20036;-73
2021/06/23 11:28:48;;;;;;;305.10;90.10;;;23.80;76.40;;;;;;5014287;28;20026;-74
2021/06/23 11:31:13;;;;;;;188.60;59.60;;;23.80;75.00;;;;;;4983283;28;20510;-75
2021/06/23 11:33:39;;;;;;;168.90;53.33;;;23.70;77.90;;;;;;5013362;28;20021;-74
2021/06/23 11:36:13;;;;;;;102.47;39.80;;;23.70;72.90;;;;;;5020535;28;20120;-75
2021/06/23 11:38:39;;;;;;;92.93;36.20;;;23.70;74.60;;;;;;5019049;28;20049;-75
2021/06/23 11:41:05;;;;;;;80.35;30.75;;;23.80;75.70;;;;;;4999845;28;20068;-76
2021/06/23 11:43:31;;;;;;;44.80;23.13;;;23.70;74.10;;;;;;5034988;28;20804;-75
2021/06/23 11:45:57;;;;;;;44.13;18.67;;;23.70;77.40;;;;;;5012758;28;20026;-76
2021/06/23 11:48:25;;;;;;;42.15;18.63;;;23.70;76.20;;;;;;5034792;28;20037;-75
2021/06/23 11:50:51;;;;;;;36.95;15.73;;;23.60;73.80;;;;;;5004745;28;20030;-75
2021/06/23 11:53:17;;;;;;;40.03;15.95;;;23.70;72.50;;;;;;4987625;28;20044;-75
2021/06/23 11:55:43;;;;;;;34.97;14.38;;;23.70;71.90;;;;;;5018806;28;20032;-75
2021/06/23 11:58:09;;;;;;;32.55;14.27;;;23.60;70.20;;;;;;5016830;28;20116;-75
2021/06/23 12:00:36;;;;;;;28.63;13.00;;;24.20;70.60;;;;;;5015576;28;20337;-74
2021/06/23 12:03:02;;;;;;;31.35;13.23;;;23.70;69.60;;;;;;5004359;28;20200;-75
2021/06/23 12:05:29;;;;;;;25.38;11.95;;;23.80;68.60;;;;;;5014017;28;20099;-75
2021/06/23 12:07:54;;;;;;;17.85;11.40;;;23.70;69.00;;;;;;5015255;28;20041;-75
2021/06/23 12:10:21;;;;;;;21.25;11.43;;;23.70;68.00;;;;;;5002322;28;20052;-75
2021/06/23 12:12:47;;;;;;;19.98;11.13;;;23.70;67.80;;;;;;5017046;28;20112;-75
2021/06/23 12:15:14;;;;;;;17.90;10.98;;;23.60;67.30;;;;;;5029200;28;20071;-75
2021/06/23 12:17:40;;;;;;;18.75;11.75;;;23.50;67.50;;;;;;5006203;28;20034;-75
2021/06/23 12:20:07;;;;;;;17.98;11.48;;;23.70;67.90;;;;;;4983152;28;20045;-76
2021/06/23 12:22:33;;;;;;;17.02;10.40;;;23.50;67.50;;;;;;5015960;28;20029;-75
2021/06/23 12:24:59;;;;;;;19.98;10.55;;;23.50;67.40;;;;;;5031667;28;20026;-75
2021/06/23 12:27:25;;;;;;;17.88;9.60;;;23.50;67.40;;;;;;5030264;28;20424;-75
2021/06/23 12:29:50;;;;;;;19.63;9.52;;;23.50;67.60;;;;;;5032557;28;20488;-75
2021/06/23 12:32:16;;;;;;;15.75;9.85;;;23.50;67.00;;;;;;4999860;28;20618;-75
2021/06/23 12:34:41;;;;;;;17.40;9.98;;;23.50;67.20;;;;;;5002689;28;20097;-75
2021/06/23 12:37:07;;;;;;;19.20;10.70;;;23.50;67.50;;;;;;5004445;28;20040;-76
2021/06/23 12:39:33;;;;;;;16.70;10.63;;;23.50;68.70;;;;;;4990036;28;20410;-75
2021/06/23 12:41:59;;;;;;;15.10;11.07;;;23.50;68.70;;;;;;5016639;28;20098;-76
2021/06/23 12:44:25;;;;;;;14.43;10.98;;;23.50;69.10;;;;;;5006996;28;20076;-76
2021/06/23 12:46:51;;;;;;;15.73;10.18;;;23.60;70.10;;;;;;5007088;28;20523;-77
2021/06/23 12:49:16;;;;;;;18.35;9.00;;;23.60;69.70;;;;;;5035856;28;20041;-76
2021/06/23 12:51:42;;;;;;;15.57;9.80;;;23.60;69.30;;;;;;4983655;28;20037;-75
2021/06/23 12:54:08;;;;;;;14.98;9.82;;;23.60;68.70;;;;;;5017288;28;20030;-75
2021/06/23 12:56:34;;;;;;;14.60;10.45;;;23.50;68.90;;;;;;5002400;28;20716;-75
2021/06/23 12:58:59;;;;;;;13.23;10.10;;;23.50;68.00;;;;;;5014590;28;20025;-75
2021/06/23 13:01:25;;;;;;;16.67;10.05;;;23.40;68.40;;;;;;5001299;28;20117;-75
2021/06/23 13:03:51;;;;;;;17.65;9.80;;;23.30;68.40;;;;;;4998612;28;20577;-75
2021/06/23 13:06:16;;;;;;;16.63;10.50;;;23.30;68.70;;;;;;5016538;28;20249;-74
2021/06/23 13:08:42;;;;;;;17.52;10.82;;;23.30;68.20;;;;;;4987205;28;20132;-75
2021/06/23 13:11:08;;;;;;;16.05;9.45;;;23.30;68.10;;;;;;5002177;28;20644;-74
2021/06/23 13:13:33;;;;;;;15.63;10.82;;;23.30;68.80;;;;;;5002718;28;20088;-75
2021/06/23 13:16:01;;;;;;;15.73;8.77;;;23.30;68.30;;;;;;5046151;28;20484;-75
2021/06/23 13:18:27;;;;;;;14.48;8.48;;;23.30;67.70;;;;;;5013576;28;20520;-74
2021/06/23 13:20:52;;;;;;;15.52;9.68;;;23.40;67.40;;;;;;5014498;28;20041;-75
2021/06/23 13:23:19;;;;;;;16.10;9.80;;;23.50;66.60;;;;;;5002713;28;20030;-75
2021/06/23 13:25:45;;;;;;;16.30;9.13;;;23.40;66.70;;;;;;5017236;28;20038;-75
2021/06/23 13:28:11;;;;;;;17.15;10.43;;;23.50;66.80;;;;;;5012689;28;20530;-75
2021/06/23 13:30:37;;;;;;;18.58;10.38;;;23.40;66.20;;;;;;5035677;28;20046;-75
2021/06/23 13:33:03;;;;;;;20.85;10.73;;;23.30;66.50;;;;;;5013542;28;20030;-75
2021/06/23 13:35:28;;;;;;;14.80;10.68;;;23.30;66.30;;;;;;5015092;28;20068;-75
2021/06/23 13:37:55;;;;;;;18.67;10.50;;;23.30;66.10;;;;;;5033330;28;20033;-75
2021/06/23 13:40:21;;;;;;;18.55;10.27;;;23.20;66.30;;;;;;5016215;28;20029;-74
2021/06/23 13:42:47;;;;;;;17.25;9.20;;;23.20;67.40;;;;;;5032342;28;20048;-75
2021/06/23 13:45:13;;;;;;;17.20;10.60;;;23.20;67.40;;;;;;5000123;28;20041;-75
2021/06/23 13:47:38;;;;;;;12.00;9.27;;;23.20;66.80;;;;;;5016751;28;20037;-75
2021/06/23 13:50:06;;;;;;;19.15;10.40;;;23.10;66.80;;;;;;5016142;28;20369;-75
2021/06/23 13:52:32;;;;;;;20.30;9.93;;;23.20;66.00;;;;;;5002511;28;20652;-75
2021/06/23 13:54:57;;;;;;;14.23;8.75;;;23.10;66.40;;;;;;5016750;28;20072;-75
2021/06/23 13:57:23;;;;;;;17.10;8.88;;;23.20;66.50;;;;;;5015974;28;20495;-75
2021/06/23 13:59:49;;;;;;;12.18;7.63;;;23.20;66.70;;;;;;5002389;28;20470;-76
2021/06/23 14:02:14;;;;;;;14.27;9.05;;;23.30;67.00;;;;;;5032948;28;20037;-74
2021/06/23 14:04:40;;;;;;;21.27;8.57;;;23.30;67.50;;;;;;5015044;28;20059;-75
2021/06/23 14:07:06;;;;;;;14.23;8.60;;;23.30;67.80;;;;;;5002648;28;20033;-75
2021/06/23 14:09:32;;;;;;;19.20;8.50;;;23.30;67.50;;;;;;5002602;28;20473;-75
2021/06/23 14:11:58;;;;;;;22.98;9.55;;;23.30;67.30;;;;;;5014057;28;20029;-75
2021/06/23 14:14:23;;;;;;;16.48;8.32;;;23.20;66.80;;;;;;4999574;28;20049;-76
2021/06/23 14:16:49;;;;;;;16.65;8.88;;;23.20;66.80;;;;;;5014490;28;20033;-75
2021/06/23 14:19:15;;;;;;;15.73;8.07;;;23.20;66.80;;;;;;5014843;28;20034;-75
2021/06/23 14:21:41;;;;;;;18.80;8.77;;;23.10;67.10;;;;;;5019993;28;20034;-74
2021/06/23 14:24:07;;;;;;;14.15;8.60;;;23.10;67.10;;;;;;5002513;28;20386;-76
2021/06/23 14:26:33;;;;;;;12.27;7.90;;;23.10;67.60;;;;;;4985070;28;20033;-76
2021/06/23 14:28:59;;;;;;;14.23;6.82;;;23.20;67.90;;;;;;5011305;28;20140;-74
2021/06/23 14:31:24;;;;;;;19.42;8.48;;;23.20;69.40;;;;;;5003522;28;20108;-75
2021/06/23 14:33:50;;;;;;;17.10;9.02;;;23.30;70.70;;;;;;5027394;28;20034;-74
2021/06/23 14:36:16;;;;;;;14.95;8.75;;;23.40;71.50;;;;;;5010430;28;20099;-75
2021/06/23 14:38:42;;;;;;;16.45;7.85;;;23.40;70.00;;;;;;5016993;28;20026;-72
2021/06/23 14:41:07;;;;;;;18.08;7.72;;;23.40;69.30;;;;;;5048561;28;20677;-75
2021/06/23 14:47:07;;;;;;;14.82;5.95;;;23.40;72.00;;;;;;5111362;27;20368;-60
2021/06/23 14:49:33;;;;;;;21.30;5.93;;;23.90;70.30;;;;;;5093785;28;20035;-60
2021/06/23 14:52:28;;;;;;;11.00;5.75;;;24.00;70.20;;;;;;5112157;28;20344;-60
2021/06/23 14:54:53;;;;;;;11.13;5.50;;;24.10;69.70;;;;;;5090697;28;20401;-60